createdAt,value
2019-02-07T00:02:01.385Z,-0.14
2019-02-07T00:04:32.473Z,-0.25
2019-02-07T00:07:03.554Z,-0.36
2019-02-07T00:09:35.129Z,-0.47
2019-02-07T00:12:06.227Z,-0.61
2019-02-07T00:14:39.722Z,-0.67
2019-02-07T00:17:09.594Z,-0.59
2019-02-07T00:19:40.957Z,-0.46
2019-02-07T00:22:12.340Z,-0.54
2019-02-07T00:24:43.668Z,-0.60
2019-02-07T00:27:14.755Z,-0.66
2019-02-07T00:29:46.496Z,-0.61
2019-02-07T00:32:17.337Z,-0.70
2019-02-07T00:34:48.543Z,-0.70
2019-02-07T00:37:19.548Z,-0.72
2019-02-07T00:39:50.632Z,-0.62
2019-02-07T00:42:21.400Z,-0.66
2019-02-07T00:44:53.627Z,-0.62
2019-02-07T00:47:24.657Z,-0.52
2019-02-07T00:49:55.680Z,-0.50
2019-02-07T00:52:26.593Z,-0.44
2019-02-07T00:54:57.449Z,-0.39
2019-02-07T00:57:28.541Z,-0.38
2019-02-07T00:59:59.688Z,-0.36
2019-02-07T01:02:30.517Z,-0.31
2019-02-07T01:05:02.009Z,-0.30
2019-02-07T01:07:32.929Z,-0.24
2019-02-07T01:10:05.253Z,-0.23
2019-02-07T01:12:36.801Z,-0.16
2019-02-07T01:15:09.220Z,-0.18
2019-02-07T01:17:40.228Z,-0.13
2019-02-07T01:20:12.260Z,-0.08
2019-02-07T01:22:43.324Z,-0.02
2019-02-07T01:25:17.607Z,-0.02
2019-02-07T01:27:48.530Z,-0.02
2019-02-07T01:30:20.922Z,0.01
2019-02-07T01:32:52.224Z,-0.03
2019-02-07T01:35:23.122Z,0.01
2019-02-07T01:37:57.241Z,0.10
2019-02-07T01:40:28.578Z,0.05
2019-02-07T01:42:59.338Z,0.03
2019-02-07T01:45:30.457Z,0.04
2019-02-07T01:48:01.803Z,0.16
2019-02-07T01:50:33.519Z,0.20
2019-02-07T01:53:04.363Z,0.29
2019-02-07T01:55:35.462Z,0.27
2019-02-07T01:58:06.315Z,0.29
2019-02-07T02:00:37.239Z,0.26
2019-02-07T02:03:08.069Z,0.39
2019-02-07T02:05:38.949Z,0.37
2019-02-07T02:08:09.865Z,0.50
2019-02-07T02:10:40.715Z,0.50
2019-02-07T02:13:11.494Z,0.59
2019-02-07T02:15:42.706Z,0.67
2019-02-07T02:18:13.477Z,0.71
2019-02-07T02:20:44.627Z,0.67
2019-02-07T02:23:15.392Z,1.08
2019-02-07T02:25:46.393Z,1.12
2019-02-07T02:28:17.235Z,1.48
2019-02-07T02:30:48.373Z,1.29
2019-02-07T02:33:19.736Z,1.28
2019-02-07T02:35:50.785Z,1.27
2019-02-07T02:38:21.820Z,1.20
2019-02-07T02:40:52.716Z,1.57
2019-02-07T02:43:25.753Z,1.52
2019-02-07T02:45:56.525Z,1.78
2019-02-07T02:48:27.432Z,2.01
2019-02-07T02:50:58.376Z,2.61
2019-02-07T02:53:29.135Z,2.70
2019-02-07T02:56:02.892Z,2.94
2019-02-07T02:58:33.805Z,2.86
2019-02-07T03:01:27.105Z,2.53
2019-02-07T03:04:25.846Z,2.52
2019-02-07T03:07:27.255Z,2.76
2019-02-07T03:10:32.175Z,2.80
2019-02-07T03:13:15.624Z,2.89
2019-02-07T03:16:02.935Z,3.06
2019-02-07T03:18:48.233Z,3.03
2019-02-07T03:21:37.700Z,3.09
2019-02-07T03:24:40.018Z,2.93
2019-02-07T03:27:28.902Z,2.89
2019-02-07T03:30:22.063Z,2.79
2019-02-07T03:33:11.109Z,2.85
2019-02-07T03:36:07.580Z,2.83
2019-02-07T03:39:03.841Z,2.88
2019-02-07T03:41:54.507Z,2.81
2019-02-07T03:44:43.033Z,2.85
2019-02-07T03:47:27.545Z,2.91
2019-02-07T03:50:35.881Z,2.91
2019-02-07T03:53:24.170Z,2.87
2019-02-07T03:56:12.528Z,2.71
2019-02-07T03:59:14.865Z,2.60
2019-02-07T04:02:16.821Z,2.61
2019-02-07T04:05:16.014Z,2.52
2019-02-07T04:08:04.445Z,2.32
2019-02-07T04:11:00.222Z,2.30
2019-02-07T04:14:08.629Z,2.43
2019-02-07T04:17:07.300Z,2.52
2019-02-07T04:20:06.574Z,2.46
2019-02-07T04:22:57.748Z,2.36
2019-02-07T04:25:46.510Z,2.25
2019-02-07T04:28:36.354Z,2.13
2019-02-07T04:31:23.160Z,2.18
2019-02-07T04:34:12.568Z,2.27
2019-02-07T04:37:01.122Z,2.40
2019-02-07T04:40:03.198Z,2.40
2019-02-07T04:42:40.964Z,2.36
2019-02-07T04:45:39.977Z,2.35
2019-02-07T04:48:47.674Z,2.45
2019-02-07T04:51:46.575Z,2.57
2019-02-07T04:54:54.632Z,2.60
2019-02-07T04:57:42.110Z,2.52
2019-02-07T05:00:48.800Z,2.36
2019-02-07T05:03:44.295Z,2.47
2019-02-07T05:06:52.044Z,2.65
2019-02-07T05:09:41.806Z,2.83
2019-02-07T05:12:30.714Z,2.82
2019-02-07T05:15:38.684Z,2.75
2019-02-07T05:18:26.638Z,2.74
2019-02-07T05:21:08.621Z,2.61
2019-02-07T05:23:56.862Z,2.50
2019-02-07T05:26:45.676Z,2.46
2019-02-07T05:29:51.728Z,2.46
2019-02-07T05:32:56.881Z,2.43
2019-02-07T05:35:45.093Z,2.49
2019-02-07T05:38:37.639Z,2.43
2019-02-07T05:41:16.190Z,2.49
2019-02-07T05:44:10.019Z,2.54
2019-02-07T05:47:17.595Z,2.48
2019-02-07T05:50:10.128Z,2.55
2019-02-07T05:53:09.218Z,2.40
2019-02-07T05:55:57.689Z,2.44
2019-02-07T05:58:53.362Z,2.49
2019-02-07T06:01:41.895Z,2.49
2019-02-07T06:04:25.387Z,2.60
2019-02-07T06:07:04.020Z,2.54
2019-02-07T06:09:49.078Z,2.50
2019-02-07T06:12:38.677Z,2.64
2019-02-07T06:15:34.435Z,2.67
2019-02-07T06:18:17.210Z,2.77
2019-02-07T06:20:56.193Z,2.73
2019-02-07T06:23:49.363Z,2.81
2019-02-07T06:26:31.371Z,2.83
2019-02-07T06:29:20.121Z,2.81
2019-02-07T06:32:03.303Z,2.77
2019-02-07T06:34:59.857Z,2.84
2019-02-07T06:37:44.033Z,2.74
2019-02-07T06:40:29.044Z,2.79
2019-02-07T06:43:18.904Z,2.79
2019-02-07T06:46:06.430Z,2.75
2019-02-07T06:48:56.287Z,2.64
2019-02-07T06:51:59.017Z,2.76
2019-02-07T06:54:49.183Z,2.75
2019-02-07T06:57:39.058Z,2.69
2019-02-07T07:00:37.181Z,2.67
2019-02-07T07:03:17.931Z,2.78
2019-02-07T07:06:07.476Z,2.77
2019-02-07T07:08:55.074Z,2.77
2019-02-07T07:11:54.022Z,2.75
2019-02-07T07:14:44.134Z,2.90
2019-02-07T07:17:28.648Z,3.00
2019-02-07T07:20:17.528Z,3.14
2019-02-07T07:23:10.554Z,3.22
2019-02-07T07:25:55.360Z,3.19
2019-02-07T07:28:51.315Z,3.36
2019-02-07T07:31:44.383Z,3.32
2019-02-07T07:34:40.116Z,3.40
2019-02-07T07:37:29.956Z,3.36
2019-02-07T07:40:32.159Z,3.42
2019-02-07T07:43:27.104Z,3.60
2019-02-07T07:46:16.071Z,3.66
2019-02-07T07:49:10.584Z,3.79
2019-02-07T07:52:03.512Z,3.89
2019-02-07T07:54:52.098Z,4.01
2019-02-07T07:57:40.101Z,4.07
2019-02-07T08:00:30.745Z,4.18
2019-02-07T08:03:33.270Z,4.18
2019-02-07T08:06:22.624Z,4.24
2019-02-07T08:09:18.664Z,4.16
2019-02-07T08:12:11.500Z,4.07
2019-02-07T08:15:01.792Z,3.96
2019-02-07T08:17:51.240Z,3.77
2019-02-07T08:20:41.108Z,3.55
2019-02-07T08:23:28.666Z,3.39
2019-02-07T08:26:16.912Z,3.31
2019-02-07T08:28:58.709Z,3.21
2019-02-07T08:31:57.581Z,3.33
2019-02-07T08:34:52.091Z,3.14
2019-02-07T08:37:40.680Z,3.31
2019-02-07T08:40:32.808Z,3.28
2019-02-07T08:43:21.445Z,3.06
2019-02-07T08:46:11.479Z,3.19
2019-02-07T08:49:07.610Z,3.23
2019-02-07T08:52:06.295Z,3.26
2019-02-07T08:54:54.537Z,3.25
2019-02-07T08:57:32.518Z,3.33
2019-02-07T09:00:21.005Z,3.45
2019-02-07T09:03:22.738Z,3.53
2019-02-07T09:06:24.511Z,3.50
2019-02-07T09:09:12.975Z,3.55
2019-02-07T09:12:18.391Z,3.64
2019-02-07T09:15:11.586Z,3.66
2019-02-07T09:17:53.519Z,3.61
2019-02-07T09:20:38.773Z,3.60
2019-02-07T09:23:34.436Z,3.67
2019-02-07T09:26:24.509Z,3.64
2019-02-07T09:29:10.022Z,3.71
2019-02-07T09:31:58.741Z,3.68
2019-02-07T09:34:54.358Z,3.55
2019-02-07T09:37:44.475Z,3.55
2019-02-07T09:40:33.033Z,3.42
2019-02-07T09:43:26.228Z,3.39
2019-02-07T09:46:24.114Z,3.44
2019-02-07T09:49:17.670Z,3.51
2019-02-07T09:52:10.540Z,3.49
2019-02-07T09:55:12.286Z,3.45
2019-02-07T09:58:08.025Z,3.25
2019-02-07T10:00:58.092Z,3.20
2019-02-07T10:03:54.437Z,3.30
2019-02-07T10:06:34.356Z,3.36
2019-02-07T10:09:28.061Z,3.40
2019-02-07T10:12:16.741Z,3.21
2019-02-07T10:15:02.880Z,3.17
2019-02-07T10:17:45.904Z,3.14
2019-02-07T10:20:37.206Z,3.22
2019-02-07T10:23:25.794Z,3.20
2019-02-07T10:26:20.366Z,3.16
2019-02-07T10:29:11.526Z,3.22
2019-02-07T10:32:03.619Z,3.44
2019-02-07T10:34:52.778Z,3.52
2019-02-07T10:37:51.607Z,3.53
2019-02-07T10:40:50.434Z,3.62
2019-02-07T10:43:41.099Z,3.58
2019-02-07T10:46:30.579Z,3.62
2019-02-07T10:49:10.996Z,3.62
2019-02-07T10:52:01.800Z,3.54
2019-02-07T10:54:57.520Z,3.54
2019-02-07T10:57:39.355Z,3.43
2019-02-07T11:00:33.420Z,3.40
2019-02-07T11:03:14.985Z,3.45
2019-02-07T11:06:07.552Z,3.37
2019-02-07T11:08:51.304Z,3.43
2019-02-07T11:11:47.339Z,3.34
2019-02-07T11:14:39.852Z,3.28
2019-02-07T11:17:36.336Z,3.29
2019-02-07T11:20:34.023Z,3.33
2019-02-07T11:23:14.778Z,3.41
2019-02-07T11:26:04.753Z,3.36
2019-02-07T11:28:43.468Z,3.32
2019-02-07T11:31:52.063Z,3.47
2019-02-07T11:34:37.252Z,3.48
2019-02-07T11:37:30.101Z,3.61
2019-02-07T11:40:25.952Z,3.69
2019-02-07T11:43:23.299Z,3.79
2019-02-07T11:46:37.465Z,3.81
2019-02-07T11:49:21.682Z,3.91
2019-02-07T11:52:10.559Z,3.82
2019-02-07T11:54:48.872Z,3.97
2019-02-07T11:57:40.661Z,3.99
2019-02-07T12:00:32.972Z,4.17
2019-02-07T12:03:13.754Z,4.09
2019-02-07T12:06:02.385Z,4.05
2019-02-07T12:08:50.768Z,4.11
2019-02-07T12:11:48.691Z,4.17
2019-02-07T12:14:37.002Z,4.15
2019-02-07T12:17:25.686Z,4.21
2019-02-07T12:20:14.295Z,4.27
2019-02-07T12:23:20.096Z,4.24
2019-02-07T12:26:09.932Z,4.31
2019-02-07T12:28:58.565Z,4.38
2019-02-07T12:31:48.120Z,4.49
2019-02-07T12:34:44.156Z,4.51
2019-02-07T12:37:30.173Z,4.42
2019-02-07T12:40:38.241Z,4.45
2019-02-07T12:43:37.362Z,4.43
2019-02-07T12:46:31.248Z,4.56
2019-02-07T12:49:33.506Z,4.56
2019-02-07T12:52:23.498Z,4.61
2019-02-07T12:55:12.208Z,4.58
2019-02-07T12:58:08.055Z,4.56
2019-02-07T13:00:57.339Z,4.70
2019-02-07T13:03:56.196Z,4.62
2019-02-07T13:06:47.195Z,4.61
2019-02-07T13:09:40.497Z,4.55
2019-02-07T13:12:21.434Z,4.58
2019-02-07T13:15:10.068Z,4.53
2019-02-07T13:18:10.191Z,4.53
2019-02-07T13:21:06.823Z,4.51
2019-02-07T13:23:59.346Z,4.56
2019-02-07T13:26:36.292Z,4.60
2019-02-07T13:29:29.314Z,4.64
2019-02-07T13:32:31.261Z,4.55
2019-02-07T13:35:29.737Z,4.55
2019-02-07T13:38:19.651Z,4.69
2019-02-07T13:41:00.662Z,4.79
2019-02-07T13:44:09.255Z,4.67
2019-02-07T13:47:03.159Z,4.74
2019-02-07T13:49:51.723Z,4.70
2019-02-07T13:52:36.448Z,4.81
2019-02-07T13:55:44.559Z,4.84
2019-02-07T13:58:34.564Z,4.84
2019-02-07T14:01:21.553Z,4.81
2019-02-07T14:04:13.790Z,4.92
2019-02-07T14:07:05.014Z,4.84
2019-02-07T14:09:53.201Z,4.93
2019-02-07T14:12:33.533Z,4.99
2019-02-07T14:15:17.583Z,5.05
2019-02-07T14:18:06.921Z,5.09
2019-02-07T14:20:55.451Z,5.12
2019-02-07T14:23:35.185Z,5.18
2019-02-07T14:26:27.789Z,5.34
2019-02-07T14:29:25.684Z,5.27
2019-02-07T14:32:14.370Z,5.48
2019-02-07T14:34:55.570Z,5.47
2019-02-07T14:37:45.413Z,5.41
2019-02-07T14:40:23.551Z,5.43
2019-02-07T14:43:16.560Z,5.45
2019-02-07T14:46:24.352Z,5.54
2019-02-07T14:48:55.571Z,5.46
2019-02-07T14:51:26.400Z,5.53
2019-02-07T14:54:00.688Z,5.44
2019-02-07T14:56:30.732Z,5.46
2019-02-07T14:59:01.934Z,5.40
2019-02-07T15:01:33.759Z,5.34
2019-02-07T15:04:05.235Z,5.38
2019-02-07T15:06:36.372Z,5.35
2019-02-07T15:09:18.420Z,5.34
2019-02-07T15:11:49.365Z,5.39
2019-02-07T15:14:20.292Z,5.38
2019-02-07T15:16:51.115Z,5.34
2019-02-07T15:19:22.042Z,5.39
2019-02-07T15:21:53.466Z,5.35
2019-02-07T15:24:24.280Z,5.34
2019-02-07T15:26:55.048Z,5.39
2019-02-07T15:29:25.886Z,5.51
2019-02-07T15:31:56.896Z,5.54
2019-02-07T15:34:27.663Z,5.47
2019-02-07T15:36:58.641Z,5.59
2019-02-07T15:39:29.825Z,5.60
2019-02-07T15:42:01.226Z,5.42
2019-02-07T15:44:32.093Z,5.48
2019-02-07T15:47:04.383Z,5.43
2019-02-07T15:49:35.280Z,5.52
2019-02-07T15:52:06.514Z,5.54
2019-02-07T15:54:39.497Z,5.46
2019-02-07T15:57:11.612Z,5.50
2019-02-07T15:59:58.106Z,5.51
2019-02-07T16:02:33.920Z,5.57
2019-02-07T16:05:08.058Z,5.59
2019-02-07T16:07:39.718Z,5.65
2019-02-07T16:10:13.321Z,5.68
2019-02-07T16:12:44.173Z,5.79
2019-02-07T16:15:15.403Z,5.79
2019-02-07T16:17:46.239Z,5.82
2019-02-07T16:20:18.391Z,5.74
2019-02-07T16:23:01.815Z,5.74
2019-02-07T16:25:33.602Z,5.75
2019-02-07T16:28:04.957Z,5.66
2019-02-07T16:30:35.881Z,5.64
2019-02-07T16:33:07.194Z,5.63
2019-02-07T16:35:38.350Z,5.51
2019-02-07T16:38:09.468Z,5.58
2019-02-07T16:40:40.246Z,5.48
2019-02-07T16:43:11.001Z,5.57
2019-02-07T16:45:42.298Z,5.48
2019-02-07T16:48:13.480Z,5.33
2019-02-07T16:50:45.502Z,5.44
2019-02-07T16:53:16.731Z,5.30
2019-02-07T16:55:47.575Z,5.47
2019-02-07T16:58:18.361Z,5.44
2019-02-07T17:00:49.136Z,5.36
2019-02-07T17:03:20.314Z,5.42
2019-02-07T17:05:51.412Z,5.49
2019-02-07T17:08:22.474Z,5.65
2019-02-07T17:10:53.432Z,5.68
2019-02-07T17:13:24.417Z,5.75
2019-02-07T17:15:55.763Z,5.78
2019-02-07T17:18:26.835Z,5.71
2019-02-07T17:20:57.697Z,5.91
2019-02-07T17:23:28.779Z,5.80
2019-02-07T17:25:59.974Z,5.74
2019-02-07T17:28:31.116Z,5.83
2019-02-07T17:31:02.910Z,5.74
2019-02-07T17:33:34.003Z,5.78
2019-02-07T17:36:05.273Z,5.63
2019-02-07T17:38:36.817Z,5.44
2019-02-07T17:41:07.810Z,5.38
2019-02-07T17:43:39.635Z,5.37
2019-02-07T17:46:10.477Z,5.37
2019-02-07T17:48:41.307Z,5.32
2019-02-07T17:51:22.648Z,5.32
2019-02-07T17:53:44.699Z,5.24
2019-02-07T17:56:15.791Z,5.23
2019-02-07T17:58:46.749Z,5.09
2019-02-07T18:01:17.593Z,5.19
2019-02-07T18:03:48.496Z,5.28
2019-02-07T18:06:19.442Z,5.28
2019-02-07T18:08:50.517Z,5.20
2019-02-07T18:11:21.366Z,5.08
2019-02-07T18:13:52.192Z,5.15
2019-02-07T18:16:23.343Z,5.09
2019-02-07T18:18:54.385Z,5.05
2019-02-07T18:21:33.897Z,5.02
2019-02-07T18:23:57.646Z,5.10
2019-02-07T18:26:28.598Z,5.14
2019-02-07T18:28:59.713Z,5.15
2019-02-07T18:31:30.582Z,5.25
2019-02-07T18:34:01.704Z,5.36
2019-02-07T18:36:32.940Z,5.31
2019-02-07T18:39:05.947Z,5.34
2019-02-07T18:41:38.919Z,5.24
2019-02-07T18:44:09.999Z,5.21
2019-02-07T18:46:41.505Z,5.23
2019-02-07T18:49:12.553Z,5.27
2019-02-07T18:51:45.747Z,5.33
2019-02-07T18:54:16.616Z,5.21
2019-02-07T18:56:47.687Z,5.31
2019-02-07T18:59:18.695Z,5.29
2019-02-07T19:01:49.788Z,5.16
2019-02-07T19:04:21.024Z,5.22
2019-02-07T19:06:52.042Z,5.22
2019-02-07T19:09:22.807Z,5.28
2019-02-07T19:11:54.797Z,5.26
2019-02-07T19:14:25.830Z,5.31
2019-02-07T19:16:56.709Z,5.18
2019-02-07T19:19:27.946Z,5.21
2019-02-07T19:21:59.028Z,5.28
2019-02-07T19:24:30.093Z,5.34
2019-02-07T19:27:01.266Z,5.38
2019-02-07T19:29:32.248Z,5.46
2019-02-07T19:32:03.055Z,5.54
2019-02-07T19:34:34.130Z,5.51
2019-02-07T19:37:05.036Z,5.67
2019-02-07T19:39:36.199Z,5.66
2019-02-07T19:42:07.379Z,5.63
2019-02-07T19:44:38.295Z,5.59
2019-02-07T19:47:09.422Z,5.59
2019-02-07T19:49:40.480Z,5.43
2019-02-07T19:52:11.930Z,5.55
2019-02-07T19:54:43.067Z,5.56
2019-02-07T19:57:14.336Z,5.58
2019-02-07T19:59:45.548Z,5.45
2019-02-07T20:02:16.427Z,5.36
2019-02-07T20:04:47.724Z,5.29
2019-02-07T20:07:18.677Z,5.39
2019-02-07T20:09:49.606Z,5.26
2019-02-07T20:12:21.022Z,5.27
2019-02-07T20:14:52.189Z,5.41
2019-02-07T20:17:23.107Z,5.31
2019-02-07T20:19:54.412Z,5.20
2019-02-07T20:22:25.556Z,5.27
2019-02-07T20:24:56.631Z,5.23
2019-02-07T20:27:28.560Z,5.24
2019-02-07T20:29:59.292Z,5.16
2019-02-07T20:32:30.439Z,5.30
2019-02-07T20:35:01.927Z,5.22
2019-02-07T20:37:32.868Z,5.22
2019-02-07T20:40:04.343Z,5.24
2019-02-07T20:42:35.647Z,5.32
2019-02-07T20:45:08.314Z,5.31
2019-02-07T20:47:39.739Z,5.43
2019-02-07T20:50:13.228Z,5.49
2019-02-07T20:52:44.412Z,5.49
2019-02-07T20:55:15.368Z,5.47
2019-02-07T20:57:46.382Z,5.45
2019-02-07T21:00:25.689Z,5.41
2019-02-07T21:02:56.772Z,5.39
2019-02-07T21:05:28.596Z,5.45
2019-02-07T21:08:00.607Z,5.41
2019-02-07T21:10:32.419Z,5.35
2019-02-07T21:13:03.294Z,5.46
2019-02-07T21:15:34.223Z,5.36
2019-02-07T21:18:05.438Z,5.42
2019-02-07T21:20:36.786Z,5.47
2019-02-07T21:23:08.009Z,5.44
2019-02-07T21:25:50.448Z,5.41
2019-02-07T21:28:21.559Z,5.46
2019-02-07T21:30:52.542Z,5.45
2019-02-07T21:33:23.339Z,5.34
2019-02-07T21:35:54.728Z,5.34
2019-02-07T21:38:25.854Z,5.30
2019-02-07T21:40:57.106Z,5.31
2019-02-07T21:43:27.947Z,5.41
2019-02-07T21:45:58.778Z,5.44
2019-02-07T21:48:29.786Z,5.34
2019-02-07T21:51:00.683Z,5.39
2019-02-07T21:53:32.003Z,5.42
2019-02-07T21:56:02.891Z,5.50
2019-02-07T21:58:34.293Z,5.58
2019-02-07T22:01:05.700Z,5.55
2019-02-07T22:03:36.539Z,5.52
2019-02-07T22:06:07.780Z,5.58
2019-02-07T22:08:39.530Z,5.66
2019-02-07T22:11:10.360Z,5.68
2019-02-07T22:13:41.548Z,5.54
2019-02-07T22:16:12.377Z,5.60
2019-02-07T22:18:43.372Z,5.57
2019-02-07T22:21:14.768Z,5.66
2019-02-07T22:23:45.762Z,5.59
2019-02-07T22:26:16.822Z,5.63
2019-02-07T22:28:47.887Z,5.68
2019-02-07T22:31:19.001Z,5.60
2019-02-07T22:33:49.878Z,5.59
2019-02-07T22:36:20.934Z,5.69
2019-02-07T22:38:51.966Z,5.69
2019-02-07T22:41:22.718Z,5.70
2019-02-07T22:43:53.563Z,5.69
2019-02-07T22:46:24.310Z,5.71
2019-02-07T22:48:55.422Z,5.73
2019-02-07T22:51:26.249Z,5.69
2019-02-07T22:53:57.628Z,5.67
2019-02-07T22:56:28.761Z,5.61
2019-02-07T22:58:59.758Z,5.71
2019-02-07T23:01:42.555Z,5.67
2019-02-07T23:04:13.705Z,5.62
2019-02-07T23:06:44.811Z,5.65
2019-02-07T23:09:18.119Z,5.73
2019-02-07T23:11:49.188Z,5.73
2019-02-07T23:14:20.458Z,5.68
2019-02-07T23:16:51.222Z,5.57
2019-02-07T23:19:22.289Z,5.64
2019-02-07T23:21:53.692Z,5.70
2019-02-07T23:24:24.563Z,5.57
2019-02-07T23:26:55.522Z,5.64
2019-02-07T23:29:26.613Z,5.62
2019-02-07T23:31:57.371Z,5.53
2019-02-07T23:34:28.387Z,5.51
2019-02-07T23:36:59.491Z,5.57
2019-02-07T23:39:30.534Z,5.51
2019-02-07T23:42:01.596Z,5.48
2019-02-07T23:44:32.347Z,5.44
2019-02-07T23:47:03.163Z,5.37
2019-02-07T23:49:33.941Z,5.45
2019-02-07T23:52:04.894Z,5.43
2019-02-07T23:54:36.246Z,5.39
2019-02-07T23:57:07.068Z,5.37
2019-02-07T23:59:38.084Z,5.44
